createdAt,value
2023-02-19T00:01:47.225Z,8.93
2023-02-19T00:04:32.641Z,10.05
2023-02-19T00:07:18.035Z,12.10
2023-02-19T00:10:04.005Z,10.45
2023-02-19T00:12:49.116Z,12.63
2023-02-19T00:15:34.482Z,10.55
2023-02-19T00:18:19.773Z,10.63
2023-02-19T00:21:05.545Z,10.73
2023-02-19T00:23:52.923Z,14.50
2023-02-19T00:26:39.954Z,12.02
2023-02-19T00:29:25.211Z,10.32
2023-02-19T00:32:10.779Z,10.23
2023-02-19T00:34:56.280Z,9.95
2023-02-19T00:37:41.661Z,10.98
2023-02-19T00:40:27.322Z,11.30
2023-02-19T00:43:12.473Z,11.32
2023-02-19T00:45:57.914Z,11.57
2023-02-19T00:48:43.236Z,13.52
2023-02-19T00:51:32.283Z,11.98
2023-02-19T00:54:18.628Z,11.30
2023-02-19T00:57:03.992Z,10.20
2023-02-19T00:59:49.243Z,10.40
2023-02-19T01:02:34.878Z,12.27
2023-02-19T01:05:20.084Z,12.27
2023-02-19T01:08:05.490Z,11.93
2023-02-19T01:10:51.177Z,10.60
2023-02-19T01:13:36.887Z,17.42
2023-02-19T01:16:27.373Z,12.15
2023-02-19T01:19:12.750Z,13.02
2023-02-19T01:21:58.116Z,10.57
2023-02-19T01:24:43.452Z,12.65
2023-02-19T01:27:28.722Z,13.38
2023-02-19T01:30:14.449Z,9.80
2023-02-19T01:32:59.422Z,10.32
2023-02-19T01:35:44.713Z,13.50
2023-02-19T01:38:30.041Z,10.02
2023-02-19T01:41:19.592Z,12.02
2023-02-19T01:44:27.786Z,12.73
2023-02-19T01:47:16.809Z,9.93
2023-02-19T01:50:01.908Z,11.88
2023-02-19T01:52:47.889Z,8.77
2023-02-19T01:55:34.661Z,14.95
2023-02-19T01:58:20.076Z,14.90
2023-02-19T02:01:08.526Z,10.98
2023-02-19T02:03:54.268Z,10.75
2023-02-19T02:06:52.045Z,10.88
2023-02-19T02:09:55.941Z,10.38
2023-02-19T02:12:41.391Z,10.75
2023-02-19T02:15:36.379Z,11.88
2023-02-19T02:18:40.290Z,10.55
2023-02-19T02:21:58.934Z,11.27
2023-02-19T02:24:57.287Z,12.10
2023-02-19T02:28:06.855Z,13.30
2023-02-19T02:30:58.872Z,11.32
2023-02-19T02:33:54.744Z,11.60
2023-02-19T02:36:43.957Z,10.32
2023-02-19T02:39:32.179Z,9.73
2023-02-19T02:42:29.495Z,11.52
2023-02-19T02:45:37.709Z,10.88
2023-02-19T02:48:49.442Z,9.20
2023-02-19T02:51:38.900Z,10.32
2023-02-19T02:54:48.380Z,10.65
2023-02-19T02:57:33.781Z,11.30
2023-02-19T03:00:19.230Z,9.55
2023-02-19T03:03:05.390Z,10.43
2023-02-19T03:05:56.102Z,9.35
2023-02-19T03:08:54.488Z,10.98
2023-02-19T03:12:02.351Z,12.43
2023-02-19T03:15:12.246Z,10.63
2023-02-19T03:18:20.859Z,12.23
2023-02-19T03:21:08.729Z,11.55
2023-02-19T03:24:15.748Z,12.40
2023-02-19T03:27:04.004Z,11.82
2023-02-19T03:29:51.632Z,12.63
2023-02-19T03:32:43.991Z,13.32
2023-02-19T03:35:33.525Z,13.55
2023-02-19T03:38:36.783Z,12.93
2023-02-19T03:41:36.419Z,13.50
2023-02-19T03:44:46.505Z,14.77
2023-02-19T03:47:50.951Z,12.02
2023-02-19T03:50:56.969Z,15.93
2023-02-19T03:53:53.229Z,14.93
2023-02-19T03:56:49.241Z,13.27
2023-02-19T04:00:18.676Z,13.35
2023-02-19T04:03:15.918Z,13.13
2023-02-19T04:06:10.747Z,12.73
2023-02-19T04:09:00.145Z,11.45
2023-02-19T04:11:45.748Z,18.30
2023-02-19T04:14:51.958Z,12.73
2023-02-19T04:17:47.396Z,12.25
2023-02-19T04:20:39.134Z,13.73
2023-02-19T04:23:27.745Z,14.13
2023-02-19T04:26:14.952Z,12.70
2023-02-19T04:29:00.263Z,11.27
2023-02-19T04:31:45.511Z,10.48
2023-02-19T04:34:30.879Z,11.80
2023-02-19T04:37:16.223Z,12.50
2023-02-19T04:40:01.725Z,12.13
2023-02-19T04:42:47.002Z,13.77
2023-02-19T04:45:32.301Z,11.57
2023-02-19T04:48:17.713Z,11.98
2023-02-19T04:51:10.346Z,11.20
2023-02-19T04:53:56.379Z,10.90
2023-02-19T04:56:41.879Z,9.02
2023-02-19T04:59:27.107Z,9.95
2023-02-19T05:02:12.534Z,9.02
2023-02-19T05:04:58.064Z,9.05
2023-02-19T05:07:43.322Z,7.70
2023-02-19T05:10:28.549Z,7.70
2023-02-19T05:13:13.778Z,6.75
2023-02-19T05:16:09.718Z,9.15
2023-02-19T05:18:54.773Z,8.23
2023-02-19T05:21:42.987Z,7.47
2023-02-19T05:24:28.317Z,7.70
2023-02-19T05:27:13.378Z,8.02
2023-02-19T05:29:59.127Z,8.13
2023-02-19T05:32:44.330Z,6.47
2023-02-19T05:35:29.724Z,8.02
2023-02-19T05:38:16.027Z,6.18
2023-02-19T05:41:28.723Z,5.75
2023-02-19T05:44:13.699Z,7.35
2023-02-19T05:46:59.047Z,5.35
2023-02-19T05:49:44.493Z,6.05
2023-02-19T05:52:29.860Z,8.25
2023-02-19T05:55:15.430Z,6.28
2023-02-19T05:58:01.200Z,6.57
2023-02-19T06:00:46.541Z,7.55
2023-02-19T06:03:31.927Z,5.70
2023-02-19T06:06:18.732Z,7.60
2023-02-19T06:09:05.348Z,5.97
2023-02-19T06:11:50.602Z,6.50
2023-02-19T06:14:35.941Z,5.75
2023-02-19T06:17:21.265Z,4.78
2023-02-19T06:20:07.038Z,4.68
2023-02-19T06:22:52.516Z,4.05
2023-02-19T06:25:37.816Z,5.72
2023-02-19T06:28:23.016Z,3.95
2023-02-19T06:31:09.858Z,6.28
2023-02-19T06:33:55.366Z,5.40
2023-02-19T06:36:40.784Z,4.38
2023-02-19T06:39:26.780Z,4.50
2023-02-19T06:42:12.187Z,4.57
2023-02-19T06:44:57.481Z,3.47
2023-02-19T06:47:42.865Z,4.35
2023-02-19T06:50:28.303Z,4.30
2023-02-19T06:53:13.677Z,3.80
2023-02-19T06:56:01.456Z,5.18
2023-02-19T06:58:46.938Z,4.22
2023-02-19T07:01:34.394Z,7.45
2023-02-19T07:04:19.993Z,4.07
2023-02-19T07:07:05.456Z,4.18
2023-02-19T07:09:50.645Z,4.60
2023-02-19T07:12:36.016Z,4.70
2023-02-19T07:15:21.378Z,3.75
2023-02-19T07:18:10.292Z,6.93
2023-02-19T07:20:55.766Z,4.22
2023-02-19T07:23:42.189Z,3.22
2023-02-19T07:26:27.639Z,3.83
2023-02-19T07:29:13.022Z,3.13
2023-02-19T07:31:58.426Z,3.30
2023-02-19T07:34:43.726Z,3.42
2023-02-19T07:37:29.080Z,3.95
2023-02-19T07:40:14.518Z,4.13
2023-02-19T07:43:00.593Z,3.95
2023-02-19T07:45:46.183Z,3.22
2023-02-19T07:48:31.818Z,3.25
2023-02-19T07:51:19.192Z,5.55
2023-02-19T07:54:04.495Z,3.45
2023-02-19T07:56:50.023Z,2.88
2023-02-19T07:59:35.576Z,2.65
2023-02-19T08:02:39.857Z,2.63
2023-02-19T08:05:25.759Z,4.28
2023-02-19T08:08:13.682Z,3.92
2023-02-19T08:11:22.559Z,2.67
2023-02-19T08:14:07.877Z,2.33
2023-02-19T08:16:54.077Z,3.08
2023-02-19T08:19:39.622Z,3.45
2023-02-19T08:22:25.104Z,3.90
2023-02-19T08:25:10.415Z,2.95
2023-02-19T08:27:55.850Z,2.42
2023-02-19T08:30:45.219Z,4.13
2023-02-19T08:33:31.009Z,2.92
2023-02-19T08:36:16.393Z,3.53
2023-02-19T08:39:01.815Z,2.30
2023-02-19T08:41:47.916Z,4.10
2023-02-19T08:44:33.255Z,2.55
2023-02-19T08:47:18.443Z,2.28
2023-02-19T08:50:05.248Z,4.32
2023-02-19T08:52:50.726Z,4.93
2023-02-19T08:55:38.695Z,2.85
2023-02-19T08:58:26.213Z,4.15
2023-02-19T09:01:15.398Z,3.17
2023-02-19T09:04:01.227Z,4.28
2023-02-19T09:06:46.493Z,3.17
2023-02-19T09:09:31.871Z,3.33
2023-02-19T09:12:17.227Z,3.38
2023-02-19T09:15:02.738Z,3.17
2023-02-19T09:17:54.457Z,5.55
2023-02-19T09:20:39.696Z,4.25
2023-02-19T09:23:25.118Z,4.68
2023-02-19T09:26:11.421Z,5.38
2023-02-19T09:28:56.526Z,4.18
2023-02-19T09:31:41.949Z,4.85
2023-02-19T09:34:28.798Z,5.38
2023-02-19T09:37:13.867Z,3.40
2023-02-19T09:39:59.307Z,3.80
2023-02-19T09:42:44.869Z,3.50
2023-02-19T09:45:30.346Z,3.58
2023-02-19T09:48:15.801Z,3.50
2023-02-19T09:51:02.600Z,3.50
2023-02-19T09:53:50.398Z,5.72
2023-02-19T09:56:35.497Z,3.90
2023-02-19T09:59:36.916Z,3.05
2023-02-19T10:02:24.297Z,4.32
2023-02-19T10:05:14.894Z,3.97
2023-02-19T10:08:00.553Z,3.40
2023-02-19T10:10:45.895Z,3.83
2023-02-19T10:14:09.398Z,4.85
2023-02-19T10:17:00.726Z,3.40
2023-02-19T10:19:46.136Z,4.35
2023-02-19T10:22:33.876Z,2.80
2023-02-19T10:25:19.010Z,2.00
2023-02-19T10:28:06.837Z,2.42
2023-02-19T10:30:56.109Z,2.75
2023-02-19T10:33:58.743Z,4.38
2023-02-19T10:36:46.107Z,1.48
2023-02-19T10:39:46.854Z,2.25
2023-02-19T10:42:32.166Z,2.58
2023-02-19T10:45:21.833Z,5.28
2023-02-19T10:48:20.974Z,3.50
2023-02-19T10:51:10.766Z,5.78
2023-02-19T10:54:07.536Z,4.43
2023-02-19T10:56:54.078Z,2.58
2023-02-19T10:59:49.902Z,2.67
2023-02-19T11:02:35.454Z,2.45
2023-02-19T11:05:21.352Z,2.65
2023-02-19T11:08:20.408Z,2.58
2023-02-19T11:11:06.400Z,2.38
2023-02-19T11:13:52.013Z,2.85
2023-02-19T11:16:51.862Z,3.30
2023-02-19T11:19:43.179Z,3.00
2023-02-19T11:22:33.103Z,5.18
2023-02-19T11:25:21.433Z,4.93
2023-02-19T11:28:20.587Z,3.63
2023-02-19T11:31:34.153Z,2.90
2023-02-19T11:34:21.191Z,4.30
2023-02-19T11:37:23.538Z,2.45
2023-02-19T11:40:12.275Z,5.40
2023-02-19T11:43:06.595Z,3.53
2023-02-19T11:46:01.318Z,3.30
2023-02-19T11:49:12.831Z,3.28
2023-02-19T11:52:10.971Z,4.80
2023-02-19T11:55:11.143Z,4.13
2023-02-19T11:58:17.633Z,3.20
2023-02-19T12:01:29.885Z,3.10
2023-02-19T12:04:52.692Z,2.08
2023-02-19T12:07:56.550Z,4.78
2023-02-19T12:11:03.537Z,1.85
2023-02-19T12:14:42.617Z,3.78
2023-02-19T12:17:46.682Z,3.05
2023-02-19T12:20:43.575Z,3.33
2023-02-19T12:23:54.918Z,3.10
2023-02-19T12:27:04.082Z,2.08
2023-02-19T12:30:17.378Z,3.35
2023-02-19T12:33:21.671Z,5.47
2023-02-19T12:36:44.926Z,2.88
2023-02-19T12:42:39.493Z,4.32
2023-02-19T12:45:31.707Z,4.28
2023-02-19T12:48:48.575Z,2.90
2023-02-19T12:51:42.493Z,3.92
2023-02-19T12:54:34.183Z,11.15
2023-02-19T12:57:31.600Z,21.55
2023-02-19T13:00:35.488Z,4.53
2023-02-19T13:03:40.197Z,2.25
2023-02-19T13:07:23.751Z,3.53
2023-02-19T13:10:31.989Z,5.13
2023-02-19T13:13:28.959Z,5.97
2023-02-19T13:16:20.711Z,2.13
2023-02-19T13:19:06.281Z,2.10
2023-02-19T13:22:21.772Z,1.58
2023-02-19T13:25:09.447Z,1.15
2023-02-19T13:28:19.152Z,1.45
2023-02-19T13:31:45.296Z,1.63
2023-02-19T13:34:47.683Z,3.70
2023-02-19T13:37:35.092Z,2.13
2023-02-19T13:40:35.737Z,2.50
2023-02-19T13:43:26.519Z,1.70
2023-02-19T13:46:15.607Z,3.03
2023-02-19T13:49:22.681Z,1.70
2023-02-19T13:52:29.642Z,1.45
2023-02-19T13:55:43.098Z,1.65
2023-02-19T13:58:34.659Z,0.93
2023-02-19T14:01:40.183Z,1.83
2023-02-19T14:05:10.302Z,2.63
2023-02-19T14:07:56.044Z,2.38
2023-02-19T14:10:57.555Z,2.35
2023-02-19T14:13:52.114Z,2.40
2023-02-19T14:16:37.913Z,2.80
2023-02-19T14:19:41.501Z,3.25
2023-02-19T14:22:45.436Z,2.83
2023-02-19T14:25:42.748Z,3.75
2023-02-19T14:28:30.075Z,3.13
2023-02-19T14:31:26.922Z,2.90
2023-02-19T14:34:22.796Z,2.63
2023-02-19T14:37:18.121Z,4.05
2023-02-19T14:40:05.052Z,3.67
2023-02-19T14:42:53.214Z,3.58
2023-02-19T14:45:43.184Z,2.85
2023-02-19T14:48:39.480Z,2.88
2023-02-19T14:51:36.170Z,2.78
2023-02-19T14:54:35.851Z,2.95
2023-02-19T14:57:28.489Z,4.35
2023-02-19T15:00:22.327Z,4.65
2023-02-19T15:03:23.847Z,5.72
2023-02-19T15:06:13.889Z,7.47
2023-02-19T15:09:05.761Z,5.10
2023-02-19T15:11:51.357Z,6.28
2023-02-19T15:14:36.918Z,5.63
2023-02-19T15:17:34.035Z,5.60
2023-02-19T15:20:28.454Z,11.45
2023-02-19T15:23:22.047Z,12.38
2023-02-19T15:26:22.754Z,9.50
2023-02-19T15:29:14.228Z,8.15
2023-02-19T15:32:00.828Z,6.97
2023-02-19T15:34:55.460Z,11.48
2023-02-19T15:37:41.455Z,9.52
2023-02-19T15:40:30.432Z,5.47
2023-02-19T15:43:53.745Z,5.32
2023-02-19T15:46:41.006Z,2.40
2023-02-19T15:49:36.643Z,4.43
2023-02-19T15:52:48.232Z,3.08
2023-02-19T15:55:44.350Z,1.50
2023-02-19T15:58:37.617Z,1.58
2023-02-19T16:01:35.856Z,1.73
2023-02-19T16:04:20.977Z,1.20
2023-02-19T16:07:06.426Z,2.63
2023-02-19T16:10:20.326Z,3.90
2023-02-19T16:13:08.174Z,7.88
2023-02-19T16:16:01.236Z,8.65
2023-02-19T16:18:48.597Z,7.68
2023-02-19T16:21:34.091Z,8.07
2023-02-19T16:24:34.568Z,7.82
2023-02-19T16:27:36.690Z,12.73
2023-02-19T16:30:30.200Z,18.38
2023-02-19T16:33:34.658Z,17.48
2023-02-19T16:36:39.156Z,8.18
2023-02-19T16:39:24.442Z,5.43
2023-02-19T16:42:13.397Z,5.60
2023-02-19T16:44:58.662Z,4.40
2023-02-19T16:47:48.407Z,5.78
2023-02-19T16:50:33.689Z,4.35
2023-02-19T16:53:21.808Z,4.03
2023-02-19T16:56:15.327Z,3.40
2023-02-19T16:59:00.687Z,3.03
2023-02-19T17:01:46.080Z,2.95
2023-02-19T17:04:31.740Z,4.00
2023-02-19T17:07:18.024Z,2.70
2023-02-19T17:10:03.410Z,10.55
2023-02-19T17:12:49.550Z,22.38
2023-02-19T17:15:35.053Z,25.23
2023-02-19T17:18:20.396Z,32.78
2023-02-19T17:21:15.220Z,17.75
2023-02-19T17:24:00.779Z,11.35
2023-02-19T17:26:46.025Z,3.55
2023-02-19T17:29:33.881Z,3.75
2023-02-19T17:32:19.325Z,4.20
2023-02-19T17:35:05.223Z,6.15
2023-02-19T17:37:53.255Z,6.35
2023-02-19T17:40:39.175Z,5.57
2023-02-19T17:43:25.520Z,5.97
2023-02-19T17:46:16.130Z,33.83
2023-02-19T17:49:01.468Z,43.65
2023-02-19T17:51:46.787Z,36.85
2023-02-19T17:54:32.126Z,29.08
2023-02-19T17:57:17.521Z,40.35
2023-02-19T18:00:04.495Z,30.00
2023-02-19T18:02:49.885Z,26.95
2023-02-19T18:05:35.143Z,20.15
2023-02-19T18:08:20.400Z,18.75
2023-02-19T18:11:07.125Z,14.68
2023-02-19T18:13:52.501Z,10.40
2023-02-19T18:16:38.001Z,7.85
2023-02-19T18:19:23.335Z,6.57
2023-02-19T18:22:08.600Z,4.43
2023-02-19T18:24:54.071Z,6.47
2023-02-19T18:27:39.399Z,5.18
2023-02-19T18:30:24.989Z,8.50
2023-02-19T18:33:13.123Z,11.18
2023-02-19T18:35:58.389Z,9.70
2023-02-19T18:38:43.797Z,5.38
2023-02-19T18:41:29.200Z,5.45
2023-02-19T18:44:21.386Z,3.42
2023-02-19T18:47:08.204Z,2.95
2023-02-19T18:49:55.463Z,3.78
2023-02-19T18:52:40.538Z,5.03
2023-02-19T18:55:25.883Z,4.50
2023-02-19T18:58:11.078Z,4.15
2023-02-19T19:00:56.976Z,2.80
2023-02-19T19:03:42.434Z,2.75
2023-02-19T19:06:27.858Z,2.80
2023-02-19T19:09:13.295Z,1.98
2023-02-19T19:11:58.930Z,1.48
2023-02-19T19:14:44.887Z,2.05
2023-02-19T19:17:30.079Z,3.85
2023-02-19T19:20:18.791Z,2.97
2023-02-19T19:23:06.012Z,3.13
2023-02-19T19:25:51.029Z,2.58
2023-02-19T19:28:38.576Z,3.25
2023-02-19T19:31:25.678Z,4.65
2023-02-19T19:34:12.252Z,3.13
2023-02-19T19:36:57.344Z,4.63
2023-02-19T19:39:43.906Z,4.55
2023-02-19T19:42:29.289Z,5.28
2023-02-19T19:45:15.582Z,4.78
2023-02-19T19:48:01.317Z,6.22
2023-02-19T19:50:46.435Z,6.57
2023-02-19T19:53:32.264Z,6.80
2023-02-19T19:56:17.724Z,8.05
2023-02-19T19:59:02.848Z,7.32
2023-02-19T20:01:50.543Z,9.85
2023-02-19T20:04:35.691Z,10.90
2023-02-19T20:07:21.097Z,9.65
2023-02-19T20:10:07.968Z,6.65
2023-02-19T20:12:53.508Z,6.28
2023-02-19T20:15:38.759Z,5.15
2023-02-19T20:18:25.894Z,5.78
2023-02-19T20:21:11.532Z,7.68
2023-02-19T20:23:57.096Z,6.93
2023-02-19T20:26:43.077Z,5.70
2023-02-19T20:29:30.978Z,5.57
2023-02-19T20:32:18.548Z,5.43
2023-02-19T20:35:04.190Z,8.07
2023-02-19T20:37:49.619Z,5.65
2023-02-19T20:40:36.099Z,5.45
2023-02-19T20:43:21.733Z,6.60
2023-02-19T20:46:07.621Z,7.88
2023-02-19T20:48:52.927Z,6.85
2023-02-19T20:51:54.807Z,6.43
2023-02-19T20:54:42.342Z,6.53
2023-02-19T20:57:27.644Z,6.65
2023-02-19T21:00:15.507Z,7.30
2023-02-19T21:03:00.706Z,11.65
2023-02-19T21:05:45.968Z,8.80
2023-02-19T21:08:31.537Z,7.97
2023-02-19T21:11:16.881Z,5.78
2023-02-19T21:14:03.355Z,7.57
2023-02-19T21:16:48.838Z,7.55
2023-02-19T21:19:34.215Z,8.80
2023-02-19T21:22:19.590Z,7.50
2023-02-19T21:25:05.064Z,7.40
2023-02-19T21:27:50.450Z,8.40
2023-02-19T21:30:36.068Z,7.50
2023-02-19T21:33:21.401Z,9.27
2023-02-19T21:36:07.264Z,7.45
2023-02-19T21:38:52.517Z,7.85
2023-02-19T21:41:37.869Z,9.05
2023-02-19T21:44:23.363Z,8.45
2023-02-19T21:47:10.630Z,29.15
2023-02-19T21:49:55.841Z,11.35
2023-02-19T21:52:42.168Z,10.32
2023-02-19T21:55:28.861Z,8.00
2023-02-19T21:58:14.235Z,8.30
2023-02-19T22:00:59.647Z,11.40
2023-02-19T22:03:44.975Z,9.38
2023-02-19T22:06:31.264Z,10.30
2023-02-19T22:09:16.785Z,9.50
2023-02-19T22:12:02.093Z,21.30
2023-02-19T22:14:47.432Z,10.48
2023-02-19T22:17:32.947Z,9.80
2023-02-19T22:20:19.536Z,10.57
2023-02-19T22:23:06.028Z,9.18
2023-02-19T22:25:51.815Z,10.45
2023-02-19T22:28:38.539Z,9.75
2023-02-19T22:31:25.556Z,9.40
2023-02-19T22:34:11.000Z,9.30
2023-02-19T22:36:56.079Z,12.07
2023-02-19T22:39:41.504Z,13.20
2023-02-19T22:42:26.961Z,10.10
2023-02-19T22:45:13.130Z,11.38
2023-02-19T22:47:58.543Z,13.43
2023-02-19T22:50:43.807Z,12.48
2023-02-19T22:53:29.257Z,10.93
2023-02-19T22:56:16.702Z,13.43
2023-02-19T22:59:01.881Z,9.05
2023-02-19T23:01:48.926Z,11.65
2023-02-19T23:04:34.220Z,11.68
2023-02-19T23:07:19.746Z,11.75
2023-02-19T23:10:05.679Z,9.45
2023-02-19T23:12:51.134Z,12.82
2023-02-19T23:15:36.564Z,10.50
2023-02-19T23:18:21.971Z,12.07
2023-02-19T23:21:07.444Z,10.43
2023-02-19T23:23:52.553Z,11.15
2023-02-19T23:26:46.116Z,11.88
2023-02-19T23:29:31.457Z,11.90
2023-02-19T23:32:20.783Z,11.20
2023-02-19T23:35:06.381Z,11.10
2023-02-19T23:37:51.448Z,14.23
2023-02-19T23:40:36.892Z,10.98
2023-02-19T23:43:22.359Z,10.02
2023-02-19T23:46:07.760Z,12.10
2023-02-19T23:48:53.396Z,13.18
2023-02-19T23:51:38.798Z,11.57
2023-02-19T23:54:24.195Z,9.40
2023-02-19T23:57:09.456Z,11.57
2023-02-19T23:59:55.017Z,12.20
